Time;durP1;ratioP1;P1;durP2;ratioP2;P2;SDS_P1;SDS_P2;PMS_P1;PMS_P2;Temp;Humidity;BMP_temperature;BMP_pressure;BME280_temperature;BME280_humidity;BME280_pressure;Samples;Min_cycle;Max_cycle;Signal;HPM_P1;HPM_P2
2021/10/04 00:00:19;;;;;;;0.70;0.40;;;15.30;99.90;;;;;;4967274;28;20199;-67
2021/10/04 00:02:45;;;;;;;0.60;0.50;;;15.20;99.90;;;;;;4967257;28;20180;-69
2021/10/04 00:05:11;;;;;;;1.05;0.50;;;15.20;99.90;;;;;;4972662;28;20617;-69
2021/10/04 00:07:38;;;;;;;1.58;0.73;;;15.10;99.90;;;;;;4971787;28;20275;-70
2021/10/04 00:10:08;;;;;;;0.45;0.45;;;15.10;99.90;;;;;;4969916;28;20932;-68
2021/10/04 00:12:33;;;;;;;0.77;0.77;;;15.10;99.90;;;;;;4966917;28;20216;-67
2021/10/04 00:14:59;;;;;;;1.40;0.75;;;15.00;99.90;;;;;;4969492;28;20177;-69
2021/10/04 00:17:25;;;;;;;0.82;0.70;;;15.00;99.90;;;;;;4967187;28;20183;-70
2021/10/04 00:19:50;;;;;;;0.90;0.57;;;15.00;99.90;;;;;;4969870;28;20264;-67
2021/10/04 00:22:16;;;;;;;0.47;0.47;;;15.00;99.90;;;;;;4968520;28;20207;-70
2021/10/04 00:24:41;;;;;;;0.70;0.70;;;14.90;99.90;;;;;;4970333;28;20176;-68
2021/10/04 00:27:07;;;;;;;0.95;0.60;;;14.90;99.90;;;;;;4969687;28;20189;-67
2021/10/04 00:29:33;;;;;;;0.50;0.50;;;14.80;99.90;;;;;;4974167;28;20790;-69
2021/10/04 00:31:58;;;;;;;0.52;0.50;;;14.80;99.90;;;;;;4972113;28;20615;-70
2021/10/04 00:34:24;;;;;;;0.93;0.80;;;14.80;99.90;;;;;;4967810;28;20687;-67
2021/10/04 00:36:50;;;;;;;0.77;0.68;;;14.70;99.90;;;;;;4966660;28;20276;-68
2021/10/04 00:39:16;;;;;;;1.50;0.70;;;14.70;99.90;;;;;;4967059;28;20197;-69
2021/10/04 00:41:42;;;;;;;0.60;0.60;;;14.80;99.90;;;;;;4971940;28;20324;-69
2021/10/04 00:44:07;;;;;;;0.60;0.60;;;14.80;99.90;;;;;;4966818;28;20232;-68
2021/10/04 00:46:33;;;;;;;1.33;0.80;;;14.80;99.90;;;;;;4971443;28;20600;-67
2021/10/04 00:48:59;;;;;;;1.75;0.65;;;14.90;99.90;;;;;;4967845;28;20538;-68
2021/10/04 00:51:25;;;;;;;1.45;0.80;;;14.90;99.90;;;;;;4975100;28;20280;-69
2021/10/04 00:53:52;;;;;;;0.70;0.70;;;14.80;99.90;;;;;;4970959;28;20284;-70
2021/10/04 00:56:18;;;;;;;0.77;0.77;;;14.70;99.90;;;;;;4966775;28;20210;-66
2021/10/04 00:58:45;;;;;;;1.25;0.50;;;14.60;99.90;;;;;;4966775;28;20579;-69
2021/10/04 01:01:11;;;;;;;0.73;0.73;;;14.60;99.90;;;;;;4966538;28;20255;-67
2021/10/04 01:03:36;;;;;;;1.20;0.80;;;14.60;99.90;;;;;;4966181;28;20189;-68
2021/10/04 01:06:03;;;;;;;0.88;0.88;;;14.60;99.90;;;;;;4969287;28;20176;-68
2021/10/04 01:08:28;;;;;;;0.68;0.60;;;14.50;99.90;;;;;;4966629;28;20189;-67
2021/10/04 01:10:54;;;;;;;0.60;0.60;;;14.50;99.90;;;;;;4965929;28;20209;-70
2021/10/04 01:13:20;;;;;;;0.60;0.60;;;14.50;99.90;;;;;;4973569;28;20266;-70
2021/10/04 01:15:45;;;;;;;0.60;0.55;;;14.40;99.90;;;;;;4966343;28;20195;-68
2021/10/04 01:18:11;;;;;;;0.93;0.63;;;14.40;99.90;;;;;;4966592;28;20232;-68
2021/10/04 01:20:37;;;;;;;1.52;0.73;;;14.50;99.90;;;;;;4966819;28;20572;-69
2021/10/04 01:23:03;;;;;;;0.50;0.50;;;14.50;99.90;;;;;;4965828;28;20216;-68
2021/10/04 01:25:30;;;;;;;0.57;0.50;;;14.50;99.90;;;;;;4969713;28;20204;-69
2021/10/04 01:27:56;;;;;;;0.65;0.65;;;14.50;99.90;;;;;;4967393;28;20239;-68
2021/10/04 01:30:24;;;;;;;0.60;0.60;;;14.60;99.90;;;;;;4966863;28;20189;-70
2021/10/04 01:32:51;;;;;;;0.68;0.60;;;14.50;99.90;;;;;;4967052;28;20205;-70
2021/10/04 01:35:17;;;;;;;1.55;0.70;;;14.60;99.90;;;;;;4970511;28;20206;-69
2021/10/04 01:37:43;;;;;;;0.75;0.63;;;14.60;99.90;;;;;;4966917;28;20269;-67
2021/10/04 01:40:10;;;;;;;0.50;0.50;;;14.60;99.90;;;;;;4969801;28;20200;-70
2021/10/04 01:42:36;;;;;;;0.50;0.50;;;14.50;99.90;;;;;;4965482;28;20199;-67
2021/10/04 01:45:04;;;;;;;1.35;0.70;;;14.50;99.90;;;;;;4965429;28;20267;-69
2021/10/04 01:47:30;;;;;;;0.65;0.60;;;14.50;99.90;;;;;;4964454;28;20185;-67
2021/10/04 01:49:55;;;;;;;1.42;0.60;;;14.40;99.90;;;;;;4965526;28;20174;-67
2021/10/04 01:52:21;;;;;;;1.05;0.68;;;14.40;99.90;;;;;;4965484;28;20273;-67
2021/10/04 01:54:47;;;;;;;0.95;0.60;;;14.30;99.90;;;;;;4971546;28;20197;-68
2021/10/04 01:57:13;;;;;;;1.27;0.60;;;14.20;99.90;;;;;;4966465;28;20211;-67
2021/10/04 01:59:38;;;;;;;0.60;0.60;;;14.20;99.90;;;;;;4965545;28;20185;-67
2021/10/04 02:02:04;;;;;;;0.85;0.85;;;14.10;99.90;;;;;;4965164;28;20223;-69
2021/10/04 02:04:30;;;;;;;0.90;0.90;;;14.00;99.90;;;;;;4969549;28;20702;-71
2021/10/04 02:06:56;;;;;;;0.88;0.85;;;14.00;99.90;;;;;;4973252;28;20643;-67
2021/10/04 02:09:21;;;;;;;0.73;0.73;;;14.00;99.90;;;;;;4975860;28;20259;-67
2021/10/04 02:11:47;;;;;;;0.60;0.57;;;14.00;99.90;;;;;;4967743;28;20255;-67
2021/10/04 02:14:14;;;;;;;0.68;0.68;;;14.00;99.90;;;;;;4965726;28;20204;-68
2021/10/04 02:16:40;;;;;;;0.90;0.63;;;14.00;99.90;;;;;;4973117;28;20227;-68
2021/10/04 02:19:06;;;;;;;0.93;0.63;;;14.00;99.90;;;;;;4965982;28;20180;-69
2021/10/04 02:21:32;;;;;;;0.88;0.80;;;14.00;99.90;;;;;;4968411;28;20205;-71
2021/10/04 02:23:57;;;;;;;0.80;0.80;;;14.10;99.90;;;;;;4965028;28;20188;-67
2021/10/04 02:26:23;;;;;;;0.90;0.60;;;14.10;99.90;;;;;;4966232;28;20193;-70
2021/10/04 02:28:48;;;;;;;1.75;0.77;;;14.10;99.90;;;;;;4967178;28;20200;-68
2021/10/04 02:31:14;;;;;;;0.80;0.65;;;14.10;99.90;;;;;;4973576;28;20220;-70
2021/10/04 02:33:42;;;;;;;0.80;0.65;;;14.10;99.90;;;;;;4972306;28;20209;-69
2021/10/04 02:36:07;;;;;;;0.60;0.60;;;14.00;99.90;;;;;;4964906;28;20220;-70
2021/10/04 02:38:33;;;;;;;0.80;0.80;;;14.10;99.90;;;;;;4966354;28;20265;-67
2021/10/04 02:40:59;;;;;;;0.80;0.70;;;14.00;99.90;;;;;;4964483;28;20204;-67
2021/10/04 02:43:24;;;;;;;0.75;0.75;;;13.90;99.90;;;;;;4970919;28;20224;-69
2021/10/04 02:45:51;;;;;;;0.80;0.80;;;13.90;99.90;;;;;;4968374;28;20184;-68
2021/10/04 02:48:17;;;;;;;0.90;0.77;;;13.80;99.90;;;;;;4966254;28;20589;-66
2021/10/04 02:50:44;;;;;;;0.80;0.68;;;13.80;99.90;;;;;;4964641;28;20201;-68
2021/10/04 02:53:10;;;;;;;1.13;0.80;;;13.80;99.90;;;;;;4964591;28;20220;-69
2021/10/04 02:55:35;;;;;;;0.70;0.70;;;13.80;99.90;;;;;;4969294;28;20185;-69
2021/10/04 02:58:01;;;;;;;0.70;0.70;;;13.80;99.90;;;;;;4967538;28;20212;-67
2021/10/04 03:00:27;;;;;;;1.35;1.02;;;13.70;99.90;;;;;;4965515;28;20704;-69
2021/10/04 03:02:53;;;;;;;1.73;0.65;;;13.70;99.90;;;;;;4974901;28;20275;-69
2021/10/04 03:05:18;;;;;;;1.05;0.77;;;13.80;99.90;;;;;;4968635;28;20188;-66
2021/10/04 03:07:44;;;;;;;1.38;0.77;;;13.70;99.90;;;;;;4974583;28;20915;-69
2021/10/04 03:10:10;;;;;;;0.80;0.80;;;13.60;99.90;;;;;;4972333;28;20181;-69
2021/10/04 03:12:35;;;;;;;0.70;0.70;;;13.60;99.90;;;;;;4967882;28;20656;-67
2021/10/04 03:15:02;;;;;;;0.70;0.70;;;13.60;99.90;;;;;;4968513;28;20196;-70
2021/10/04 03:17:28;;;;;;;1.15;0.75;;;13.50;99.90;;;;;;4972975;28;20173;-69
2021/10/04 03:19:53;;;;;;;0.70;0.70;;;13.60;99.90;;;;;;4968159;28;20537;-67
2021/10/04 03:22:19;;;;;;;1.52;0.95;;;13.50;99.90;;;;;;4971035;28;20244;-68
2021/10/04 03:24:45;;;;;;;0.95;0.85;;;13.50;99.90;;;;;;4969341;28;20928;-69
2021/10/04 03:27:10;;;;;;;1.20;0.70;;;13.60;99.90;;;;;;4971411;28;20667;-68
2021/10/04 03:29:36;;;;;;;1.00;0.80;;;13.60;99.90;;;;;;4967831;28;20239;-69
2021/10/04 03:32:02;;;;;;;0.75;0.75;;;13.60;99.90;;;;;;4967919;28;20692;-67
2021/10/04 03:34:27;;;;;;;0.77;0.70;;;13.60;99.90;;;;;;4970604;28;20499;-68
2021/10/04 03:36:54;;;;;;;0.73;0.70;;;13.60;99.90;;;;;;4968274;28;20177;-69
2021/10/04 03:39:19;;;;;;;0.80;0.68;;;13.60;99.90;;;;;;4971848;28;20169;-69
2021/10/04 03:41:45;;;;;;;0.75;0.70;;;13.60;99.90;;;;;;4967153;28;20203;-68
2021/10/04 03:44:11;;;;;;;0.60;0.60;;;13.60;99.90;;;;;;4974706;28;20181;-67
2021/10/04 03:46:36;;;;;;;0.68;0.68;;;13.60;99.90;;;;;;4974444;28;20212;-69
2021/10/04 03:49:02;;;;;;;0.85;0.80;;;13.60;99.90;;;;;;4967931;28;20212;-70
2021/10/04 03:51:29;;;;;;;0.60;0.60;;;13.70;99.90;;;;;;4967617;28;20401;-69
2021/10/04 03:53:54;;;;;;;0.90;0.65;;;13.70;99.90;;;;;;4967940;28;20204;-70
2021/10/04 03:56:20;;;;;;;0.52;0.50;;;13.60;99.90;;;;;;4967474;28;20199;-67
2021/10/04 03:58:46;;;;;;;0.60;0.60;;;13.60;99.90;;;;;;4967988;28;20232;-67
2021/10/04 04:01:11;;;;;;;0.80;0.60;;;13.50;99.90;;;;;;4968659;28;20275;-68
2021/10/04 04:03:38;;;;;;;1.00;0.63;;;13.40;99.90;;;;;;4967249;28;20267;-66
2021/10/04 04:06:04;;;;;;;1.35;0.60;;;13.40;99.90;;;;;;4967587;28;20542;-70
2021/10/04 04:08:30;;;;;;;2.88;0.80;;;13.50;99.90;;;;;;4974263;28;20239;-68
2021/10/04 04:10:57;;;;;;;1.50;0.70;;;13.50;99.90;;;;;;4970661;28;20196;-68
2021/10/04 04:13:22;;;;;;;0.60;0.60;;;13.40;99.90;;;;;;4967243;28;20205;-68
2021/10/04 04:15:48;;;;;;;1.27;0.80;;;13.40;99.90;;;;;;4967729;28;20908;-68
2021/10/04 04:18:13;;;;;;;1.05;0.60;;;13.30;99.90;;;;;;4973379;28;20184;-70
2021/10/04 04:20:39;;;;;;;1.42;0.57;;;13.30;99.90;;;;;;4970681;28;20201;-70
2021/10/04 04:23:05;;;;;;;0.70;0.70;;;13.30;99.90;;;;;;4968387;28;20193;-70
2021/10/04 04:25:30;;;;;;;0.68;0.68;;;13.20;99.90;;;;;;4967318;28;20299;-70
2021/10/04 04:27:58;;;;;;;0.60;0.60;;;13.20;99.90;;;;;;4971157;28;20189;-70
2021/10/04 04:30:25;;;;;;;0.60;0.60;;;13.20;99.90;;;;;;4966796;28;20240;-69
2021/10/04 04:32:51;;;;;;;0.60;0.60;;;13.20;99.90;;;;;;4967684;28;20710;-68
2021/10/04 04:35:16;;;;;;;1.23;0.70;;;13.20;99.90;;;;;;4966931;28;20189;-68
2021/10/04 04:37:43;;;;;;;0.68;0.68;;;13.40;99.90;;;;;;4967415;28;20177;-68
2021/10/04 04:40:12;;;;;;;1.30;0.52;;;13.40;99.90;;;;;;4966533;28;20661;-69
2021/10/04 04:42:39;;;;;;;0.80;0.70;;;13.40;99.90;;;;;;4972311;28;20546;-69
2021/10/04 04:45:05;;;;;;;0.60;0.60;;;13.40;99.90;;;;;;4974632;28;20180;-68
2021/10/04 04:47:31;;;;;;;1.13;0.50;;;13.40;99.90;;;;;;4970672;28;20177;-67
2021/10/04 04:49:56;;;;;;;0.50;0.50;;;13.40;99.90;;;;;;4971751;28;20188;-68
2021/10/04 04:52:22;;;;;;;0.63;0.57;;;13.30;99.90;;;;;;4971178;28;20205;-67
2021/10/04 04:54:48;;;;;;;0.88;0.60;;;13.30;99.90;;;;;;4967635;28;20209;-67
2021/10/04 04:57:13;;;;;;;0.90;0.63;;;13.30;99.90;;;;;;4973604;28;20212;-66
2021/10/04 04:59:39;;;;;;;0.82;0.50;;;13.20;99.90;;;;;;4972588;28;20191;-70
2021/10/04 05:02:05;;;;;;;0.50;0.50;;;13.20;99.90;;;;;;4966027;28;20680;-68
2021/10/04 05:04:30;;;;;;;0.70;0.70;;;13.10;99.90;;;;;;4968932;28;20192;-70
2021/10/04 05:06:56;;;;;;;0.60;0.50;;;13.10;99.90;;;;;;4966551;28;20208;-69
2021/10/04 05:09:22;;;;;;;1.17;0.65;;;13.10;99.90;;;;;;4965220;28;20528;-71
2021/10/04 05:11:48;;;;;;;1.40;0.60;;;13.20;99.90;;;;;;4967307;28;20201;-68
2021/10/04 05:14:14;;;;;;;2.55;0.80;;;13.20;99.90;;;;;;4969646;28;20209;-68
2021/10/04 05:16:39;;;;;;;0.73;0.50;;;13.20;99.90;;;;;;4972347;28;20181;-69
2021/10/04 05:19:05;;;;;;;1.40;0.50;;;13.20;99.90;;;;;;4967204;28;20185;-67
2021/10/04 05:21:31;;;;;;;0.50;0.50;;;13.10;99.90;;;;;;4966752;28;20200;-69
2021/10/04 05:23:57;;;;;;;1.05;0.65;;;13.20;99.90;;;;;;4969971;28;20196;-67
2021/10/04 05:26:22;;;;;;;0.50;0.50;;;13.20;99.90;;;;;;4969044;28;20192;-68
2021/10/04 05:28:48;;;;;;;1.83;0.50;;;13.20;99.90;;;;;;4972620;28;20587;-69
2021/10/04 05:31:14;;;;;;;0.80;0.60;;;13.20;99.90;;;;;;4969343;28;20262;-69
2021/10/04 05:33:39;;;;;;;1.98;0.73;;;13.10;99.90;;;;;;4965217;28;20247;-70
2021/10/04 05:36:06;;;;;;;0.73;0.50;;;13.20;99.90;;;;;;4981151;28;20177;-70
2021/10/04 05:38:32;;;;;;;0.63;0.50;;;13.20;99.90;;;;;;4971183;28;20177;-69
2021/10/04 05:40:57;;;;;;;1.10;0.70;;;13.20;99.90;;;;;;4968220;28;20204;-67
2021/10/04 05:43:23;;;;;;;0.63;0.63;;;13.20;99.90;;;;;;4971513;28;20204;-66
2021/10/04 05:45:49;;;;;;;0.60;0.35;;;13.20;99.90;;;;;;4965727;28;20664;-69
2021/10/04 05:48:15;;;;;;;1.70;0.57;;;13.20;99.90;;;;;;4975140;28;20269;-70
2021/10/04 05:50:40;;;;;;;1.60;0.60;;;13.20;99.90;;;;;;4969285;28;20220;-67
2021/10/04 05:53:06;;;;;;;0.60;0.60;;;13.30;99.90;;;;;;4965339;28;20219;-69
2021/10/04 05:55:32;;;;;;;0.88;0.57;;;13.30;99.90;;;;;;4970098;28;20313;-68
2021/10/04 05:57:57;;;;;;;1.23;0.50;;;13.30;99.90;;;;;;4965847;28;20181;-69
2021/10/04 06:00:23;;;;;;;1.85;0.57;;;13.30;99.90;;;;;;4968159;28;20177;-70
2021/10/04 06:02:48;;;;;;;4.03;0.65;;;13.40;99.90;;;;;;4970607;28;20177;-71
2021/10/04 06:05:15;;;;;;;1.02;0.40;;;13.50;99.90;;;;;;4966272;28;20177;-68
2021/10/04 06:07:41;;;;;;;1.33;0.77;;;13.40;99.90;;;;;;4972009;28;20173;-66
2021/10/04 06:10:08;;;;;;;2.78;0.68;;;13.40;99.90;;;;;;4967286;28;20181;-68
2021/10/04 06:12:34;;;;;;;1.25;0.60;;;13.40;99.90;;;;;;4965589;28;20207;-69
2021/10/04 06:15:00;;;;;;;1.85;0.57;;;13.30;99.90;;;;;;4965306;28;20200;-68
2021/10/04 06:17:27;;;;;;;0.55;0.55;;;13.30;99.90;;;;;;4968179;28;20176;-70
2021/10/04 06:19:53;;;;;;;0.57;0.57;;;13.30;99.90;;;;;;4972801;28;20648;-68
2021/10/04 06:22:20;;;;;;;0.88;0.60;;;13.30;99.90;;;;;;4965937;28;20223;-70
2021/10/04 06:24:46;;;;;;;3.33;0.80;;;13.40;99.90;;;;;;4965524;28;20276;-70
2021/10/04 06:27:12;;;;;;;1.05;0.55;;;13.40;99.90;;;;;;4965910;28;20327;-70
2021/10/04 06:29:37;;;;;;;2.88;0.60;;;13.50;99.90;;;;;;4970244;28;20187;-69
2021/10/04 06:32:05;;;;;;;0.80;0.60;;;13.60;99.90;;;;;;4968442;28;20220;-68
2021/10/04 06:34:31;;;;;;;1.55;0.55;;;13.60;99.90;;;;;;4967689;28;20197;-68
2021/10/04 06:36:56;;;;;;;0.60;0.40;;;13.70;99.90;;;;;;4971276;28;20180;-68
2021/10/04 06:39:22;;;;;;;0.77;0.50;;;13.70;99.90;;;;;;4966006;28;20638;-69
2021/10/04 06:41:47;;;;;;;0.57;0.50;;;13.80;99.90;;;;;;4965811;28;20212;-67
2021/10/04 06:44:13;;;;;;;1.98;0.60;;;13.90;99.90;;;;;;4965671;28;20180;-66
2021/10/04 06:46:39;;;;;;;3.05;1.10;;;14.00;99.90;;;;;;4965458;28;20275;-66
2021/10/04 06:49:05;;;;;;;0.73;0.60;;;14.10;99.90;;;;;;4964554;28;20319;-68
2021/10/04 06:51:31;;;;;;;0.50;0.50;;;14.10;99.90;;;;;;4977391;28;20211;-68
2021/10/04 06:53:57;;;;;;;0.80;0.52;;;14.10;99.90;;;;;;4966440;28;20204;-70
2021/10/04 06:56:23;;;;;;;0.47;0.40;;;14.20;99.90;;;;;;4973108;28;20184;-70
2021/10/04 06:58:48;;;;;;;2.75;0.98;;;14.20;99.90;;;;;;4965106;28;20632;-70
2021/10/04 07:01:14;;;;;;;0.90;0.70;;;14.10;99.90;;;;;;4969206;28;20211;-67
2021/10/04 07:03:39;;;;;;;1.90;0.88;;;14.10;99.90;;;;;;4967732;28;20820;-67
2021/10/04 07:06:05;;;;;;;0.82;0.75;;;14.10;99.90;;;;;;4969609;28;20188;-69
2021/10/04 07:08:31;;;;;;;0.80;0.50;;;14.10;99.90;;;;;;4972260;28;20677;-69
2021/10/04 07:10:56;;;;;;;0.93;0.57;;;14.10;99.90;;;;;;4976569;28;20200;-69
2021/10/04 07:13:23;;;;;;;0.70;0.60;;;14.20;99.90;;;;;;4966413;28;20200;-69
2021/10/04 07:15:49;;;;;;;1.52;0.68;;;14.20;99.90;;;;;;4965548;28;20224;-67
2021/10/04 07:18:15;;;;;;;0.50;0.50;;;14.30;99.90;;;;;;4966698;28;20236;-69
2021/10/04 07:20:41;;;;;;;0.60;0.50;;;14.40;99.90;;;;;;4964802;28;20308;-69
2021/10/04 07:23:06;;;;;;;0.77;0.65;;;14.50;99.90;;;;;;4969243;28;20720;-69
2021/10/04 07:25:33;;;;;;;1.70;0.90;;;14.70;99.90;;;;;;4964927;28;20498;-69
2021/10/04 07:28:00;;;;;;;0.88;0.60;;;14.70;99.90;;;;;;4973844;28;20228;-68
2021/10/04 07:30:26;;;;;;;2.08;0.63;;;14.70;99.90;;;;;;4964274;28;20188;-69
2021/10/04 07:32:51;;;;;;;1.48;0.60;;;14.80;99.90;;;;;;4970541;28;20185;-69
2021/10/04 07:35:19;;;;;;;1.23;0.60;;;15.00;99.90;;;;;;4969405;28;20664;-67
2021/10/04 07:37:44;;;;;;;0.60;0.45;;;15.00;99.90;;;;;;4968001;28;20169;-67
2021/10/04 07:40:11;;;;;;;1.35;0.65;;;15.00;99.90;;;;;;4970121;28;20196;-68
2021/10/04 07:42:38;;;;;;;0.98;0.70;;;15.10;99.90;;;;;;4966403;28;20213;-69
2021/10/04 07:45:04;;;;;;;1.55;0.50;;;15.10;99.90;;;;;;4971160;28;20188;-68
2021/10/04 07:47:30;;;;;;;2.53;0.55;;;15.20;99.90;;;;;;4979943;28;20216;-71
2021/10/04 07:49:56;;;;;;;2.15;0.63;;;15.20;99.90;;;;;;4966753;28;20687;-71
2021/10/04 07:52:21;;;;;;;0.95;0.40;;;15.30;99.90;;;;;;4975024;28;20211;-69
2021/10/04 07:54:47;;;;;;;2.03;0.60;;;15.40;99.90;;;;;;4970500;28;20594;-68
2021/10/04 07:57:13;;;;;;;1.20;0.60;;;15.50;99.90;;;;;;4970588;28;20695;-69
2021/10/04 07:59:42;;;;;;;1.50;0.63;;;15.60;99.90;;;;;;4968013;28;20191;-69
2021/10/04 08:02:09;;;;;;;1.55;0.40;;;15.60;99.90;;;;;;4970901;28;20211;-69
2021/10/04 08:04:35;;;;;;;0.50;0.45;;;15.50;99.90;;;;;;4967968;28;20189;-69
2021/10/04 08:07:01;;;;;;;0.40;0.40;;;15.60;99.90;;;;;;4968404;28;20173;-69
2021/10/04 08:09:27;;;;;;;0.95;0.40;;;15.70;99.90;;;;;;4967586;28;20189;-68
2021/10/04 08:11:52;;;;;;;1.10;0.40;;;15.90;99.90;;;;;;4967872;28;20208;-68
2021/10/04 08:14:18;;;;;;;1.08;0.47;;;16.00;99.90;;;;;;4972534;28;20727;-67
2021/10/04 08:16:44;;;;;;;1.60;0.60;;;16.10;99.90;;;;;;4973737;28;20275;-67
2021/10/04 08:19:09;;;;;;;0.52;0.45;;;16.20;99.90;;;;;;4967847;28;20624;-70
2021/10/04 08:21:35;;;;;;;1.80;0.70;;;16.60;99.90;;;;;;4972023;28;20209;-69
2021/10/04 08:24:01;;;;;;;1.40;0.50;;;16.90;99.90;;;;;;4978050;28;20219;-67
2021/10/04 08:26:27;;;;;;;2.30;0.70;;;16.90;99.90;;;;;;4970699;28;20189;-67
2021/10/04 08:28:53;;;;;;;2.28;0.57;;;16.90;99.90;;;;;;4972064;28;20184;-68
2021/10/04 08:31:20;;;;;;;1.75;0.52;;;16.80;99.90;;;;;;4970195;28;20567;-66
2021/10/04 08:33:45;;;;;;;0.50;0.50;;;16.70;99.90;;;;;;4973656;28;20738;-68
2021/10/04 08:36:11;;;;;;;2.67;0.70;;;16.80;99.90;;;;;;4968809;28;20185;-67
2021/10/04 08:38:37;;;;;;;0.80;0.40;;;16.70;99.90;;;;;;4967631;28;20560;-69
2021/10/04 08:41:03;;;;;;;1.33;0.52;;;16.70;99.90;;;;;;4973495;28;20239;-68
2021/10/04 08:43:29;;;;;;;0.90;0.40;;;16.90;99.90;;;;;;4970538;28;20271;-69
2021/10/04 08:45:58;;;;;;;1.10;0.40;;;16.90;99.90;;;;;;4971256;28;20181;-66
2021/10/04 08:48:25;;;;;;;1.48;0.30;;;16.90;99.90;;;;;;4967880;28;20215;-67
2021/10/04 08:50:51;;;;;;;1.80;0.60;;;16.80;99.90;;;;;;4967097;28;20201;-69
2021/10/04 08:53:17;;;;;;;2.70;0.47;;;16.70;99.90;;;;;;4970523;28;20203;-67
2021/10/04 08:55:43;;;;;;;1.25;0.47;;;16.60;99.90;;;;;;4970792;28;20569;-68
2021/10/04 08:58:10;;;;;;;2.00;0.50;;;16.70;99.90;;;;;;4967734;28;20185;-70
2021/10/04 09:00:37;;;;;;;2.25;0.85;;;16.60;99.90;;;;;;4978612;28;20220;-70
2021/10/04 09:03:03;;;;;;;1.40;0.50;;;16.50;99.90;;;;;;4969668;28;20318;-70
2021/10/04 09:05:30;;;;;;;0.70;0.30;;;16.40;99.90;;;;;;4967264;28;20188;-67
2021/10/04 09:08:10;;;;;;;3.40;0.80;;;16.50;99.90;;;;;;4967445;28;20192;-68
2021/10/04 09:10:41;;;;;;;1.30;0.40;;;16.50;99.90;;;;;;4966564;28;20184;-68
2021/10/04 09:13:11;;;;;;;1.58;0.50;;;16.60;99.90;;;;;;4970404;28;20519;-68
2021/10/04 09:15:51;;;;;;;2.85;0.60;;;16.70;99.90;;;;;;4966703;28;20180;-67
2021/10/04 09:18:27;;;;;;;1.30;0.40;;;16.80;99.90;;;;;;4966012;28;20189;-69
2021/10/04 09:21:09;;;;;;;3.35;0.43;;;16.70;99.90;;;;;;4970091;28;20596;-67
2021/10/04 09:23:52;;;;;;;2.17;0.40;;;16.90;99.90;;;;;;4966439;28;20584;-70
2021/10/04 09:26:27;;;;;;;2.85;0.50;;;16.70;99.90;;;;;;4975102;28;20184;-68
2021/10/04 09:29:05;;;;;;;2.75;0.70;;;16.70;99.90;;;;;;4965780;28;20181;-69
2021/10/04 09:31:36;;;;;;;1.48;0.43;;;16.70;99.90;;;;;;4965114;28;20216;-69
2021/10/04 09:34:04;;;;;;;2.30;0.47;;;16.80;99.90;;;;;;4974577;28;20302;-67
2021/10/04 09:36:34;;;;;;;7.47;0.60;;;16.90;99.90;;;;;;4969734;28;20260;-68
2021/10/04 09:39:20;;;;;;;1.10;0.40;;;17.10;99.90;;;;;;4965385;28;20696;-67
2021/10/04 09:42:04;;;;;;;0.98;0.47;;;17.20;99.90;;;;;;4965311;28;20208;-70
2021/10/04 09:44:41;;;;;;;0.88;0.40;;;17.20;99.90;;;;;;4966223;28;20188;-69
2021/10/04 09:47:45;;;;;;;1.23;0.40;;;17.10;99.90;;;;;;4966852;28;20181;-70
2021/10/04 09:50:17;;;;;;;1.08;0.50;;;17.00;99.90;;;;;;4958345;28;20223;-70
2021/10/04 09:53:04;;;;;;;2.90;0.70;;;17.10;99.90;;;;;;4965397;28;20205;-70
2021/10/04 09:55:33;;;;;;;1.58;0.60;;;17.30;99.90;;;;;;4965832;28;20212;-69
2021/10/04 09:58:13;;;;;;;1.55;0.55;;;17.50;99.90;;;;;;4974005;28;20941;-69
2021/10/04 10:00:44;;;;;;;2.15;0.60;;;17.70;99.90;;;;;;4969287;28;20208;-69
2021/10/04 10:03:12;;;;;;;1.88;0.55;;;17.60;99.90;;;;;;4966022;28;20177;-70
2021/10/04 10:05:45;;;;;;;1.63;0.50;;;17.60;99.90;;;;;;4965983;28;20176;-70
2021/10/04 10:08:11;;;;;;;4.03;0.50;;;17.80;99.90;;;;;;4966331;28;20234;-68
2021/10/04 10:10:38;;;;;;;1.65;0.50;;;18.00;99.90;;;;;;4966398;28;20596;-68
2021/10/04 10:13:06;;;;;;;0.85;0.30;;;18.20;99.90;;;;;;4976784;28;20169;-70
2021/10/04 10:15:32;;;;;;;0.82;0.40;;;18.30;99.90;;;;;;4969216;28;20588;-69
2021/10/04 10:18:10;;;;;;;1.73;0.45;;;18.40;99.90;;;;;;4965892;28;20668;-68
2021/10/04 10:20:38;;;;;;;2.03;0.40;;;18.40;99.90;;;;;;4968219;28;20612;-69
2021/10/04 10:23:03;;;;;;;1.25;0.40;;;18.10;99.90;;;;;;4967905;28;20188;-66
2021/10/04 10:25:41;;;;;;;1.58;0.30;;;17.90;99.90;;;;;;4967829;28;20185;-69
2021/10/04 10:28:31;;;;;;;1.85;0.45;;;17.80;99.90;;;;;;4966073;28;20560;-69
2021/10/04 10:30:56;;;;;;;1.85;0.40;;;18.00;99.90;;;;;;4966287;28;20711;-69
2021/10/04 10:33:54;;;;;;;2.05;0.30;;;17.90;99.90;;;;;;4965508;28;20196;-69
2021/10/04 10:37:06;;;;;;;1.63;0.45;;;17.70;99.90;;;;;;4944112;28;20196;-69
2021/10/04 10:39:41;;;;;;;1.02;0.50;;;17.70;99.90;;;;;;4964295;28;20195;-70
2021/10/04 10:42:13;;;;;;;1.45;0.47;;;17.70;99.90;;;;;;4974960;28;20196;-69
2021/10/04 10:44:59;;;;;;;0.95;0.40;;;17.70;99.90;;;;;;4965553;28;20235;-67
2021/10/04 10:47:36;;;;;;;3.35;0.55;;;17.70;99.90;;;;;;4958287;28;20751;-69
2021/10/04 10:50:26;;;;;;;1.20;0.30;;;17.80;99.90;;;;;;4972335;28;20183;-66
2021/10/04 10:52:57;;;;;;;1.33;0.50;;;17.80;99.90;;;;;;4964685;28;20231;-68
2021/10/04 10:55:23;;;;;;;1.33;0.47;;;17.70;99.90;;;;;;4967173;28;20267;-68
2021/10/04 10:57:51;;;;;;;1.10;0.43;;;17.70;99.90;;;;;;4969553;28;20176;-68
2021/10/04 11:00:20;;;;;;;1.73;0.57;;;17.70;99.90;;;;;;4965976;28;20211;-68
2021/10/04 11:02:47;;;;;;;1.35;0.60;;;17.80;99.90;;;;;;4969341;28;20181;-70
2021/10/04 11:05:37;;;;;;;0.75;0.40;;;18.10;99.90;;;;;;4966992;28;20656;-66
2021/10/04 11:08:29;;;;;;;1.35;0.60;;;18.20;99.90;;;;;;4970769;28;20548;-71
2021/10/04 11:10:57;;;;;;;0.57;0.40;;;18.30;99.90;;;;;;4946395;28;20311;-67
2021/10/04 11:13:23;;;;;;;1.35;0.30;;;18.40;99.90;;;;;;4963753;28;20699;-69
2021/10/04 11:15:49;;;;;;;1.50;0.30;;;18.50;99.90;;;;;;4964952;28;20185;-67
2021/10/04 11:18:15;;;;;;;0.35;0.30;;;18.30;99.90;;;;;;4965830;28;20663;-67
2021/10/04 11:20:41;;;;;;;1.80;0.40;;;18.30;99.90;;;;;;4964678;28;20307;-68
2021/10/04 11:23:15;;;;;;;0.93;0.40;;;18.30;99.90;;;;;;4971377;28;20617;-67
2021/10/04 11:25:43;;;;;;;2.40;0.60;;;18.30;99.90;;;;;;4973463;28;20190;-67
2021/10/04 11:28:10;;;;;;;3.53;0.50;;;18.40;99.90;;;;;;4969020;28;20185;-69
2021/10/04 11:30:56;;;;;;;0.73;0.38;;;18.60;99.90;;;;;;4968281;28;20177;-68
2021/10/04 11:33:26;;;;;;;1.20;0.52;;;18.80;99.90;;;;;;4975616;28;20203;-68
2021/10/04 11:36:13;;;;;;;1.92;0.40;;;18.90;99.90;;;;;;4972777;28;20300;-69
2021/10/04 11:38:55;;;;;;;1.77;0.40;;;18.90;99.90;;;;;;4983129;28;20196;-69
2021/10/04 11:41:23;;;;;;;1.33;0.40;;;19.10;99.90;;;;;;4968812;28;20212;-69
2021/10/04 11:43:53;;;;;;;3.60;0.60;;;19.30;99.90;;;;;;4968489;28;20347;-67
2021/10/04 11:46:20;;;;;;;0.98;0.40;;;19.40;99.90;;;;;;4968328;28;20227;-69
2021/10/04 11:48:47;;;;;;;0.98;0.30;;;19.40;99.90;;;;;;4969895;28;20178;-68
2021/10/04 11:51:27;;;;;;;0.60;0.40;;;19.40;99.90;;;;;;4968505;28;20695;-69
2021/10/04 11:53:54;;;;;;;1.40;0.30;;;19.30;99.90;;;;;;4969456;28;20629;-69
2021/10/04 11:56:21;;;;;;;1.95;0.32;;;19.30;99.90;;;;;;4968222;28;20268;-67
2021/10/04 11:58:49;;;;;;;2.30;0.40;;;19.50;99.90;;;;;;4972161;28;20176;-70
2021/10/04 12:01:33;;;;;;;0.85;0.30;;;19.60;99.90;;;;;;4971638;28;20660;-71
2021/10/04 12:04:10;;;;;;;1.17;0.52;;;19.60;99.90;;;;;;4968303;28;20192;-69
2021/10/04 12:06:40;;;;;;;2.03;0.40;;;19.60;99.90;;;;;;4967855;28;20280;-70
2021/10/04 12:09:12;;;;;;;2.50;0.40;;;19.70;99.90;;;;;;4968064;28;20582;-69
2021/10/04 12:11:50;;;;;;;1.08;0.30;;;19.60;99.90;;;;;;4971233;28;20208;-70
2021/10/04 12:14:18;;;;;;;0.65;0.40;;;19.60;99.90;;;;;;4969549;28;20263;-67
2021/10/04 12:16:44;;;;;;;0.95;0.30;;;19.60;99.90;;;;;;4968726;28;20488;-67
2021/10/04 12:19:10;;;;;;;1.83;0.50;;;19.50;99.90;;;;;;4969776;28;20518;-67
2021/10/04 12:21:39;;;;;;;1.48;0.40;;;19.70;99.90;;;;;;4970318;28;20207;-70
2021/10/04 12:24:24;;;;;;;1.20;0.30;;;19.60;99.90;;;;;;4970449;28;20538;-70
2021/10/04 12:27:10;;;;;;;1.80;0.50;;;19.50;99.90;;;;;;4967617;28;20261;-67
2021/10/04 12:29:43;;;;;;;0.98;0.30;;;19.40;99.90;;;;;;4967951;28;20209;-66
2021/10/04 12:32:46;;;;;;;1.15;0.20;;;19.50;99.90;;;;;;4966668;28;20217;-70
2021/10/04 12:35:17;;;;;;;1.05;0.30;;;19.50;99.90;;;;;;4973550;28;20207;-69
2021/10/04 12:37:52;;;;;;;0.50;0.30;;;19.50;99.90;;;;;;4969983;28;20172;-66
2021/10/04 12:40:18;;;;;;;1.25;0.30;;;19.60;99.90;;;;;;4967720;28;20185;-67
2021/10/04 12:42:44;;;;;;;1.13;0.32;;;19.70;99.90;;;;;;4966743;28;20212;-66
2021/10/04 12:45:12;;;;;;;0.52;0.30;;;19.50;99.90;;;;;;4973074;28;20208;-67
2021/10/04 12:47:52;;;;;;;0.80;0.20;;;19.40;99.90;;;;;;4972336;28;20185;-70
2021/10/04 12:50:22;;;;;;;1.27;0.40;;;19.20;99.90;;;;;;4967505;28;20184;-68
2021/10/04 12:52:48;;;;;;;0.30;0.30;;;19.20;99.90;;;;;;4966850;28;20189;-69